Time;durP1;ratioP1;P1;durP2;ratioP2;P2;SDS_P1;SDS_P2;PMS_P1;PMS_P2;Temp;Humidity;BMP_temperature;BMP_pressure;BME280_temperature;BME280_humidity;BME280_pressure;Samples;Min_cycle;Max_cycle;Signal;HPM_P1;HPM_P2
2023/09/17 06:02:31;;;;;;;13.30;8.57;;;;;;;;;;5010277;23;20614;-70
2023/09/17 06:04:57;;;;;;;11.57;8.40;;;;;;;;;;4975460;28;20431;-70
2023/09/17 06:07:23;;;;;;;12.80;7.70;;;;;;;;;;4974836;28;20427;-70
2023/09/17 06:09:49;;;;;;;10.43;7.13;;;;;;;;;;4975379;28;20447;-70
2023/09/17 06:12:15;;;;;;;11.80;7.40;;;;;;;;;;4974922;28;20503;-70
2023/09/17 06:14:42;;;;;;;9.63;6.83;;;;;;;;;;4975796;28;21078;-68
2023/09/17 06:17:08;;;;;;;10.30;7.67;;;;;;;;;;4974841;28;20426;-71
2023/09/17 06:19:37;;;;;;;13.27;7.80;;;;;;;;;;4974798;28;20454;-69
2023/09/17 06:22:03;;;;;;;10.10;7.33;;;;;;;;;;4975050;28;20499;-68
2023/09/17 06:24:29;;;;;;;10.63;7.30;;;;;;;;;;4974635;28;20412;-68
2023/09/17 06:26:55;;;;;;;11.60;8.17;;;;;;;;;;4974970;28;20422;-68
2023/09/17 06:29:21;;;;;;;12.77;8.13;;;;;;;;;;4975238;28;20973;-69
2023/09/17 06:31:47;;;;;;;12.87;8.10;;;;;;;;;;4975119;28;20530;-68
2023/09/17 06:34:13;;;;;;;10.17;7.70;;;;;;;;;;4973984;28;20511;-70
2023/09/17 06:36:39;;;;;;;14.77;8.00;;;;;;;;;;4974578;28;20458;-70
2023/09/17 06:39:06;;;;;;;12.60;7.90;;;;;;;;;;4974794;28;20452;-70
2023/09/17 06:41:32;;;;;;;11.83;7.83;;;;;;;;;;4972930;28;20463;-72
2023/09/17 06:43:58;;;;;;;12.07;8.40;;;;;;;;;;4974133;28;20415;-72
2023/09/17 06:46:25;;;;;;;12.17;8.27;;;;;;;;;;4973901;28;20435;-70
2023/09/17 06:48:51;;;;;;;12.53;8.37;;;;;;;;;;4974443;28;20821;-70
2023/09/17 06:51:17;;;;;;;11.30;7.87;;;;;;;;;;4974337;28;20431;-70
2023/09/17 06:53:43;;;;;;;13.23;7.40;;;;;;;;;;4973939;28;20930;-69
2023/09/17 06:56:10;;;;;;;10.87;7.37;;;;;;;;;;4974248;28;20404;-69
2023/09/17 06:58:36;;;;;;;10.03;6.80;;;;;;;;;;4974023;28;20415;-71
2023/09/17 07:01:02;;;;;;;14.67;7.30;;;;;;;;;;4973825;28;20486;-70
2023/09/17 07:03:28;;;;;;;11.77;7.40;;;;;;;;;;4973651;28;20435;-70
2023/09/17 07:05:54;;;;;;;9.37;6.60;;;;;;;;;;4973813;28;20486;-71
2023/09/17 07:08:20;;;;;;;10.03;6.90;;;;;;;;;;4973761;28;20412;-69
2023/09/17 07:10:46;;;;;;;8.80;6.07;;;;;;;;;;4973654;28;20498;-70
2023/09/17 07:13:13;;;;;;;7.67;6.10;;;;;;;;;;4973279;28;20424;-69
2023/09/17 07:15:39;;;;;;;9.67;6.53;;;;;;;;;;4973577;28;20490;-69
2023/09/17 07:18:08;;;;;;;10.70;6.70;;;;;;;;;;4973488;28;20947;-69
2023/09/17 07:20:36;;;;;;;8.30;6.57;;;;;;;;;;4973252;28;20460;-70
2023/09/17 07:23:02;;;;;;;8.77;6.10;;;;;;;;;;4973204;28;20416;-69
2023/09/17 07:25:28;;;;;;;10.20;7.03;;;;;;;;;;4974875;28;20918;-68
2023/09/17 07:27:54;;;;;;;12.80;7.37;;;;;;;;;;4976607;28;20899;-69
2023/09/17 07:30:20;;;;;;;9.10;6.57;;;;;;;;;;4973680;28;20470;-69
2023/09/17 07:32:46;;;;;;;10.30;7.10;;;;;;;;;;4973600;28;20413;-69
2023/09/17 07:35:12;;;;;;;11.77;7.23;;;;;;;;;;4973809;28;20411;-70
2023/09/17 07:37:38;;;;;;;9.53;6.90;;;;;;;;;;4972917;28;20427;-69
2023/09/17 07:40:04;;;;;;;10.17;7.10;;;;;;;;;;4972903;28;20490;-69
2023/09/17 07:42:30;;;;;;;9.00;7.10;;;;;;;;;;4973353;28;20463;-69
2023/09/17 07:44:56;;;;;;;10.37;7.03;;;;;;;;;;4973082;28;20456;-69
2023/09/17 07:47:23;;;;;;;9.10;6.07;;;;;;;;;;4973163;28;20442;-69
2023/09/17 07:49:49;;;;;;;8.80;6.40;;;;;;;;;;4973143;28;20408;-70
2023/09/17 07:52:14;;;;;;;12.03;6.90;;;;;;;;;;4972979;28;20436;-68
2023/09/17 07:54:41;;;;;;;10.70;7.50;;;;;;;;;;4972906;28;20551;-69
2023/09/17 07:57:07;;;;;;;12.47;7.80;;;;;;;;;;4971770;28;20423;-69
2023/09/17 07:59:33;;;;;;;11.23;7.33;;;;;;;;;;4972868;28;20424;-69
2023/09/17 08:01:59;;;;;;;10.47;7.07;;;;;;;;;;4972718;28;20478;-68
2023/09/17 08:04:26;;;;;;;16.20;7.20;;;;;;;;;;4972863;28;20448;-68
2023/09/17 08:06:52;;;;;;;9.27;6.80;;;;;;;;;;4973114;28;20412;-69
2023/09/17 08:09:18;;;;;;;10.50;6.77;;;;;;;;;;4973081;28;20414;-69
2023/09/17 08:11:44;;;;;;;10.60;6.73;;;;;;;;;;4972861;28;20450;-69
2023/09/17 08:14:11;;;;;;;15.20;9.20;;;;;;;;;;4972833;28;20883;-71
2023/09/17 08:16:37;;;;;;;10.13;6.60;;;;;;;;;;4972948;28;20963;-70
2023/09/17 08:19:03;;;;;;;10.50;6.90;;;;;;;;;;4972897;28;20411;-70
2023/09/17 08:21:29;;;;;;;8.53;6.33;;;;;;;;;;4972886;28;20475;-69
2023/09/17 08:23:58;;;;;;;8.87;6.70;;;;;;;;;;4972513;28;20443;-70
2023/09/17 08:26:27;;;;;;;9.30;6.90;;;;;;;;;;4972716;28;20484;-71
2023/09/17 08:28:55;;;;;;;7.27;5.93;;;;;;;;;;4972604;28;20424;-70
2023/09/17 08:31:23;;;;;;;11.57;6.30;;;;;;;;;;4972557;28;20439;-70
2023/09/17 08:33:50;;;;;;;11.90;6.50;;;;;;;;;;4972545;28;20903;-70
2023/09/17 08:36:16;;;;;;;10.60;5.93;;;;;;;;;;4972593;28;20423;-70
2023/09/17 08:38:43;;;;;;;8.27;5.80;;;;;;;;;;4972684;28;20503;-69
2023/09/17 08:41:09;;;;;;;10.37;6.50;;;;;;;;;;4972512;28;20498;-70
2023/09/17 08:43:35;;;;;;;10.87;6.17;;;;;;;;;;4972579;28;20408;-70
2023/09/17 08:46:01;;;;;;;10.33;6.23;;;;;;;;;;4972571;28;20411;-69
2023/09/17 08:48:27;;;;;;;9.57;6.30;;;;;;;;;;4972683;28;20408;-69
2023/09/17 08:50:55;;;;;;;9.33;6.13;;;;;;;;;;4975743;28;20786;-69
2023/09/17 08:53:26;;;;;;;11.20;5.93;;;;;;;;;;4976070;28;20851;-70
2023/09/17 08:55:54;;;;;;;10.13;5.53;;;;;;;;;;4976027;28;20915;-69
2023/09/17 08:58:24;;;;;;;10.70;5.80;;;;;;;;;;4975896;28;20442;-71
2023/09/17 09:00:51;;;;;;;9.13;5.70;;;;;;;;;;4975860;28;20575;-69
2023/09/17 09:03:18;;;;;;;15.20;7.90;;;;;;;;;;4975761;28;20412;-72
2023/09/17 09:05:44;;;;;;;9.90;7.50;;;;;;;;;;4975708;28;20408;-69
2023/09/17 09:08:13;;;;;;;9.37;6.20;;;;;;;;;;4976259;28;20840;-70
2023/09/17 09:10:39;;;;;;;9.57;6.33;;;;;;;;;;4975750;28;20453;-69
2023/09/17 09:13:05;;;;;;;13.00;6.70;;;;;;;;;;4975355;28;20408;-70
2023/09/17 09:15:31;;;;;;;8.53;5.90;;;;;;;;;;4975572;28;20423;-72
2023/09/17 09:17:57;;;;;;;8.27;6.30;;;;;;;;;;4975686;28;20482;-72
2023/09/17 09:20:23;;;;;;;6.00;5.10;;;;;;;;;;4975516;28;20486;-69
2023/09/17 09:22:49;;;;;;;8.37;5.40;;;;;;;;;;4975162;28;20787;-69
2023/09/17 09:25:16;;;;;;;5.90;5.17;;;;;;;;;;4975467;28;20927;-70
2023/09/17 09:27:42;;;;;;;10.13;5.20;;;;;;;;;;4975732;28;20412;-71
2023/09/17 09:30:09;;;;;;;8.77;5.53;;;;;;;;;;4975406;28;20412;-70
2023/09/17 09:32:36;;;;;;;9.57;5.90;;;;;;;;;;4975754;28;20811;-69
2023/09/17 09:35:02;;;;;;;8.07;4.50;;;;;;;;;;4976578;28;20426;-70
2023/09/17 09:37:28;;;;;;;8.53;5.20;;;;;;;;;;4975855;28;20419;-69
2023/09/17 09:39:54;;;;;;;10.20;5.73;;;;;;;;;;4975981;28;20459;-69
2023/09/17 09:42:20;;;;;;;9.97;5.70;;;;;;;;;;4975957;28;20443;-71
2023/09/17 09:44:47;;;;;;;8.13;5.67;;;;;;;;;;4975184;28;20412;-71
2023/09/17 09:47:14;;;;;;;10.03;5.30;;;;;;;;;;4976889;28;20418;-69
2023/09/17 09:49:44;;;;;;;6.97;5.17;;;;;;;;;;4976469;28;20430;-71
2023/09/17 09:52:12;;;;;;;7.80;4.90;;;;;;;;;;4977043;28;20447;-71
2023/09/17 09:54:39;;;;;;;9.47;5.27;;;;;;;;;;4978200;28;20412;-70
2023/09/17 09:57:05;;;;;;;8.10;4.83;;;;;;;;;;4977520;28;20455;-69
2023/09/17 09:59:33;;;;;;;6.23;4.43;;;;;;;;;;4978053;28;20451;-69
2023/09/17 10:01:59;;;;;;;8.03;4.93;;;;;;;;;;4975961;28;20463;-69
2023/09/17 10:04:26;;;;;;;9.13;5.10;;;;;;;;;;4976864;28;20452;-69
2023/09/17 10:06:52;;;;;;;9.00;5.10;;;;;;;;;;4976961;28;20411;-71
2023/09/17 10:09:18;;;;;;;6.83;4.50;;;;;;;;;;4977021;28;20460;-68
2023/09/17 10:11:44;;;;;;;6.53;4.43;;;;;;;;;;4976180;28;20495;-70
2023/09/17 10:14:10;;;;;;;9.33;5.10;;;;;;;;;;4974515;28;20420;-70
2023/09/17 10:16:36;;;;;;;10.37;4.53;;;;;;;;;;4974214;28;20483;-70
2023/09/17 10:19:06;;;;;;;10.87;5.07;;;;;;;;;;4974358;28;20432;-70
2023/09/17 10:21:38;;;;;;;9.43;5.07;;;;;;;;;;4973958;28;20471;-71
2023/09/17 10:24:04;;;;;;;5.63;4.13;;;;;;;;;;4974290;28;20934;-70
2023/09/17 10:26:41;;;;;;;6.80;4.60;;;;;;;;;;4974835;28;20412;-71
2023/09/17 10:29:07;;;;;;;7.57;4.00;;;;;;;;;;4955453;28;20495;-70
2023/09/17 10:31:35;;;;;;;13.70;4.60;;;;;;;;;;4954479;28;20936;-70
2023/09/17 10:34:02;;;;;;;10.00;4.67;;;;;;;;;;4954522;28;20452;-70
2023/09/17 10:36:31;;;;;;;7.90;4.50;;;;;;;;;;4954730;28;21016;-70
2023/09/17 10:38:59;;;;;;;7.13;4.20;;;;;;;;;;4954818;28;20417;-69
2023/09/17 10:41:28;;;;;;;10.00;4.40;;;;;;;;;;4954449;28;20506;-70
2023/09/17 10:43:55;;;;;;;6.20;4.00;;;;;;;;;;4954410;28;20424;-69
2023/09/17 10:46:22;;;;;;;8.67;3.40;;;;;;;;;;4954763;28;20924;-70
2023/09/17 10:48:48;;;;;;;7.30;4.40;;;;;;;;;;4954584;28;20416;-70
2023/09/17 10:51:14;;;;;;;14.70;4.47;;;;;;;;;;4961234;28;20443;-69
2023/09/17 10:53:40;;;;;;;9.27;4.10;;;;;;;;;;4973527;28;20412;-70
2023/09/17 10:56:11;;;;;;;12.50;3.93;;;;;;;;;;4973466;28;20949;-69
2023/09/17 10:58:52;;;;;;;9.83;4.13;;;;;;;;;;4973754;28;20420;-71
2023/09/17 11:01:21;;;;;;;6.67;3.97;;;;;;;;;;4973181;28;20705;-70
2023/09/17 11:03:49;;;;;;;7.47;3.93;;;;;;;;;;4973201;28;20868;-71
2023/09/17 11:06:23;;;;;;;7.80;3.83;;;;;;;;;;4973574;28;20412;-70
2023/09/17 11:08:50;;;;;;;11.73;4.30;;;;;;;;;;4973585;28;20470;-69
2023/09/17 11:11:16;;;;;;;8.90;3.70;;;;;;;;;;4971954;28;20479;-70
2023/09/17 11:13:46;;;;;;;8.30;3.57;;;;;;;;;;4973216;28;20903;-69
2023/09/17 11:16:31;;;;;;;11.60;4.00;;;;;;;;;;4972728;28;20485;-70
2023/09/17 11:19:11;;;;;;;10.33;3.93;;;;;;;;;;4973243;28;20408;-70
2023/09/17 11:21:38;;;;;;;9.73;3.90;;;;;;;;;;4972883;28;20474;-71
2023/09/17 11:24:06;;;;;;;8.03;3.43;;;;;;;;;;4972843;28;20431;-70
2023/09/17 11:26:34;;;;;;;9.43;3.80;;;;;;;;;;4973108;28;20414;-70
2023/09/17 11:29:04;;;;;;;6.77;3.10;;;;;;;;;;4973370;28;20836;-70
2023/09/17 11:31:32;;;;;;;11.20;4.37;;;;;;;;;;4972827;28;20439;-70
2023/09/17 11:33:58;;;;;;;12.03;3.90;;;;;;;;;;4972884;28;20833;-69
2023/09/17 11:36:26;;;;;;;13.87;3.50;;;;;;;;;;4972740;28;20502;-70
2023/09/17 11:38:52;;;;;;;8.33;3.87;;;;;;;;;;4973010;28;20490;-70
2023/09/17 11:41:27;;;;;;;6.77;3.13;;;;;;;;;;4972414;28;20543;-70
2023/09/17 11:43:53;;;;;;;8.20;3.67;;;;;;;;;;4972649;28;20415;-70
2023/09/17 11:46:20;;;;;;;5.13;3.50;;;;;;;;;;4972821;28;20643;-70
2023/09/17 11:48:46;;;;;;;12.53;4.00;;;;;;;;;;4972903;28;20880;-70
2023/09/17 11:51:21;;;;;;;7.60;3.27;;;;;;;;;;4972713;28;20447;-70
2023/09/17 11:53:51;;;;;;;8.43;3.03;;;;;;;;;;4972466;28;20420;-69
2023/09/17 11:56:17;;;;;;;5.57;2.87;;;;;;;;;;4972711;28;20418;-70
2023/09/17 11:58:43;;;;;;;10.20;3.43;;;;;;;;;;4972635;28;20511;-70
2023/09/17 12:01:09;;;;;;;7.00;3.50;;;;;;;;;;4972443;28;20482;-69
2023/09/17 12:03:35;;;;;;;10.53;4.00;;;;;;;;;;4972469;28;20486;-70
2023/09/17 12:06:04;;;;;;;9.93;3.30;;;;;;;;;;4972579;28;20451;-70
2023/09/17 12:08:31;;;;;;;7.80;3.60;;;;;;;;;;4972666;28;20427;-70
2023/09/17 12:11:02;;;;;;;10.07;3.40;;;;;;;;;;4970928;28;20459;-70
2023/09/17 12:13:33;;;;;;;6.70;3.37;;;;;;;;;;4972212;28;20416;-70
2023/09/17 12:16:00;;;;;;;7.77;3.17;;;;;;;;;;5012765;23;20625;-71
2023/09/17 12:18:26;;;;;;;9.13;3.13;;;;;;;;;;4991794;28;20411;-73
2023/09/17 12:20:59;;;;;;;7.23;3.10;;;;;;;;;;4992294;28;20462;-72
2023/09/17 12:23:37;;;;;;;7.80;3.30;;;;;;;;;;4991519;28;20410;-71
2023/09/17 12:26:03;;;;;;;13.37;3.43;;;;;;;;;;4995613;28;20423;-71
2023/09/17 12:28:29;;;;;;;6.90;3.33;;;;;;;;;;4996867;28;20845;-70
2023/09/17 12:30:55;;;;;;;10.50;4.00;;;;;;;;;;4996754;28;20442;-70
2023/09/17 12:33:22;;;;;;;6.90;2.90;;;;;;;;;;4998778;28;20407;-73
2023/09/17 12:35:48;;;;;;;9.20;2.83;;;;;;;;;;4996839;28;20997;-73
2023/09/17 12:38:15;;;;;;;7.90;3.40;;;;;;;;;;4996058;28;20460;-73
2023/09/17 12:40:41;;;;;;;21.77;3.57;;;;;;;;;;4996679;28;20917;-73
2023/09/17 12:43:08;;;;;;;6.70;3.37;;;;;;;;;;4997112;28;20450;-73
2023/09/17 12:45:34;;;;;;;9.23;3.47;;;;;;;;;;4996512;28;20524;-73
2023/09/17 12:48:00;;;;;;;8.27;3.20;;;;;;;;;;4996638;28;20933;-73
2023/09/17 12:50:29;;;;;;;10.30;3.47;;;;;;;;;;4996424;28;20418;-73
2023/09/17 12:52:58;;;;;;;4.57;3.13;;;;;;;;;;4982861;28;20448;-72
2023/09/17 12:55:25;;;;;;;9.50;3.77;;;;;;;;;;4976736;28;20922;-72
2023/09/17 12:57:51;;;;;;;7.40;3.50;;;;;;;;;;4976475;28;20407;-73
2023/09/17 13:00:17;;;;;;;10.23;4.37;;;;;;;;;;4976189;28;20465;-72
2023/09/17 13:02:43;;;;;;;9.43;3.90;;;;;;;;;;4975426;28;20507;-72
2023/09/17 13:05:19;;;;;;;11.33;4.17;;;;;;;;;;4983096;28;20518;-72
2023/09/17 13:07:45;;;;;;;7.80;3.63;;;;;;;;;;4995112;28;20489;-72
2023/09/17 13:10:11;;;;;;;7.87;3.60;;;;;;;;;;4995417;28;20454;-72
2023/09/17 13:12:37;;;;;;;8.50;3.27;;;;;;;;;;4995529;28;20422;-72
2023/09/17 13:15:03;;;;;;;8.40;3.60;;;;;;;;;;4995373;28;20446;-72
2023/09/17 13:17:29;;;;;;;7.60;3.63;;;;;;;;;;4994903;28;20988;-72
2023/09/17 13:19:58;;;;;;;5.53;3.23;;;;;;;;;;4994738;28;20414;-72
2023/09/17 13:22:24;;;;;;;7.40;3.20;;;;;;;;;;4994604;28;20419;-72
2023/09/17 13:24:50;;;;;;;6.13;2.93;;;;;;;;;;4994709;28;20465;-72
2023/09/17 13:27:17;;;;;;;6.93;3.47;;;;;;;;;;4993625;28;20429;-72
2023/09/17 13:29:47;;;;;;;10.70;4.20;;;;;;;;;;4995376;28;20399;-72
2023/09/17 13:32:13;;;;;;;11.53;3.80;;;;;;;;;;4994499;28;20816;-72
2023/09/17 13:34:43;;;;;;;8.50;3.00;;;;;;;;;;4993334;28;20419;-72
2023/09/17 13:37:09;;;;;;;13.47;3.80;;;;;;;;;;4986101;28;20424;-72
2023/09/17 13:39:41;;;;;;;6.90;3.37;;;;;;;;;;4975392;28;20903;-72
2023/09/17 13:42:08;;;;;;;6.20;3.00;;;;;;;;;;4975139;28;20911;-71
2023/09/17 13:44:34;;;;;;;9.83;3.40;;;;;;;;;;4974886;28;20438;-71
2023/09/17 13:47:00;;;;;;;6.63;3.50;;;;;;;;;;4974865;28;20499;-71
2023/09/17 13:49:26;;;;;;;10.60;3.53;;;;;;;;;;4975961;28;20420;-71
2023/09/17 13:51:53;;;;;;;7.97;3.70;;;;;;;;;;4975023;28;20415;-71
2023/09/17 13:54:19;;;;;;;7.63;3.17;;;;;;;;;;4974719;28;20436;-71
2023/09/17 13:56:45;;;;;;;10.00;3.93;;;;;;;;;;4974921;28;20412;-72
2023/09/17 13:59:11;;;;;;;6.00;3.50;;;;;;;;;;4975222;28;20413;-71
2023/09/17 14:01:43;;;;;;;13.10;3.80;;;;;;;;;;4974437;28;20459;-71
2023/09/17 14:04:08;;;;;;;11.60;3.90;;;;;;;;;;4974823;28;20416;-71
2023/09/17 14:06:34;;;;;;;9.70;3.57;;;;;;;;;;4994058;28;20466;-71
2023/09/17 14:09:01;;;;;;;13.83;3.50;;;;;;;;;;4993485;28;20434;-73
2023/09/17 14:11:27;;;;;;;7.90;3.07;;;;;;;;;;4993901;28;20442;-72
2023/09/17 14:13:53;;;;;;;9.30;3.60;;;;;;;;;;4993694;28;20434;-71
2023/09/17 14:16:19;;;;;;;7.70;2.97;;;;;;;;;;4993736;28;20949;-72
2023/09/17 14:18:47;;;;;;;7.20;3.40;;;;;;;;;;4996738;28;20904;-72
2023/09/17 14:21:13;;;;;;;6.53;3.50;;;;;;;;;;4999214;28;20513;-71
2023/09/17 14:23:41;;;;;;;7.70;3.20;;;;;;;;;;4998485;28;20893;-72
2023/09/17 14:26:07;;;;;;;11.87;3.80;;;;;;;;;;4994710;28;20426;-71
2023/09/17 14:28:33;;;;;;;8.17;3.43;;;;;;;;;;4994424;28;20431;-71
2023/09/17 14:30:59;;;;;;;5.30;3.30;;;;;;;;;;4993758;28;20406;-71
2023/09/17 14:33:25;;;;;;;8.97;3.70;;;;;;;;;;4993623;28;20415;-72
2023/09/17 14:35:51;;;;;;;7.73;3.00;;;;;;;;;;4993643;28;20530;-72
2023/09/17 14:38:17;;;;;;;7.40;3.20;;;;;;;;;;4991847;28;20430;-72
2023/09/17 14:40:43;;;;;;;11.57;3.77;;;;;;;;;;4992952;28;20462;-72
2023/09/17 14:43:10;;;;;;;8.70;3.20;;;;;;;;;;4993340;28;20969;-72
2023/09/17 14:45:37;;;;;;;6.23;3.33;;;;;;;;;;4993477;28;20799;-72
2023/09/17 14:48:03;;;;;;;8.60;3.80;;;;;;;;;;4992925;28;20499;-70
2023/09/17 14:50:29;;;;;;;8.30;3.00;;;;;;;;;;4976848;28;20435;-70
2023/09/17 14:52:55;;;;;;;9.23;3.40;;;;;;;;;;4973544;28;20420;-73
2023/09/17 14:55:21;;;;;;;7.63;3.43;;;;;;;;;;4973700;28;20463;-72
2023/09/17 14:57:47;;;;;;;10.03;3.50;;;;;;;;;;4972345;28;20663;-74
2023/09/17 15:00:16;;;;;;;6.10;2.93;;;;;;;;;;4973670;28;20801;-74
2023/09/17 15:02:42;;;;;;;3.77;2.53;;;;;;;;;;4978284;28;20412;-74
2023/09/17 15:05:08;;;;;;;9.10;2.70;;;;;;;;;;4998768;28;20926;-74
2023/09/17 15:07:36;;;;;;;4.13;2.50;;;;;;;;;;4993954;28;20411;-72
2023/09/17 15:10:02;;;;;;;8.67;2.40;;;;;;;;;;4992946;28;20481;-72
2023/09/17 15:12:29;;;;;;;8.00;2.87;;;;;;;;;;4992458;28;20411;-72
2023/09/17 15:14:54;;;;;;;6.33;2.67;;;;;;;;;;4992745;28;20446;-73
2023/09/17 15:17:23;;;;;;;5.60;2.90;;;;;;;;;;4982687;28;20432;-73
2023/09/17 15:19:49;;;;;;;5.30;3.43;;;;;;;;;;4973468;28;20440;-73
2023/09/17 15:22:15;;;;;;;7.40;2.23;;;;;;;;;;4973378;28;20736;-73
2023/09/17 15:24:41;;;;;;;5.20;3.07;;;;;;;;;;4973229;28;20438;-72
2023/09/17 15:27:07;;;;;;;6.60;3.00;;;;;;;;;;4973125;28;20478;-73
2023/09/17 15:29:33;;;;;;;12.13;2.93;;;;;;;;;;4972366;28;20448;-73
2023/09/17 15:31:59;;;;;;;9.33;3.13;;;;;;;;;;4987446;28;20527;-73
2023/09/17 15:34:25;;;;;;;7.50;2.43;;;;;;;;;;4992622;28;20853;-72
2023/09/17 15:36:51;;;;;;;10.23;3.00;;;;;;;;;;4992397;28;20411;-73
2023/09/17 15:39:18;;;;;;;9.50;3.03;;;;;;;;;;4990625;28;20466;-73
2023/09/17 15:41:44;;;;;;;6.60;2.20;;;;;;;;;;4991843;28;21112;-73
2023/09/17 15:44:10;;;;;;;9.97;2.83;;;;;;;;;;4987847;28;20530;-73
2023/09/17 15:46:36;;;;;;;7.23;2.70;;;;;;;;;;4973043;28;20522;-73
2023/09/17 15:49:02;;;;;;;6.37;3.27;;;;;;;;;;4972843;28;20408;-73
2023/09/17 15:51:28;;;;;;;8.07;3.50;;;;;;;;;;4972753;28;20415;-73
2023/09/17 15:53:54;;;;;;;4.73;3.57;;;;;;;;;;4971234;28;20420;-73
2023/09/17 15:56:20;;;;;;;9.30;3.40;;;;;;;;;;4972697;28;20770;-73
2023/09/17 15:58:46;;;;;;;6.33;3.23;;;;;;;;;;4982217;28;20431;-72
2023/09/17 16:01:12;;;;;;;5.43;2.90;;;;;;;;;;4991663;28;20458;-73
2023/09/17 16:03:38;;;;;;;5.80;3.13;;;;;;;;;;4991714;28;20415;-73
2023/09/17 16:06:04;;;;;;;3.90;2.57;;;;;;;;;;4991638;28;20459;-73
2023/09/17 16:08:30;;;;;;;5.87;2.90;;;;;;;;;;4978851;28;20547;-73
2023/09/17 16:10:56;;;;;;;7.43;3.00;;;;;;;;;;4972149;28;20463;-73
2023/09/17 16:13:22;;;;;;;4.63;2.83;;;;;;;;;;4987866;28;20493;-73
2023/09/17 16:15:51;;;;;;;8.70;3.10;;;;;;;;;;4992073;28;20451;-74
2023/09/17 16:18:17;;;;;;;16.53;3.30;;;;;;;;;;4991688;28;20458;-73
2023/09/17 16:20:42;;;;;;;11.63;3.10;;;;;;;;;;4991802;28;20485;-72
2023/09/17 16:23:10;;;;;;;21.07;10.80;;;;;;;;;;4985901;28;20466;-73
2023/09/17 16:25:36;;;;;;;4.63;2.80;;;;;;;;;;4991554;28;20498;-73
2023/09/17 16:28:02;;;;;;;10.67;2.93;;;;;;;;;;4991932;28;20407;-73
2023/09/17 16:30:28;;;;;;;5.77;2.60;;;;;;;;;;4991817;28;20411;-73
2023/09/17 16:32:54;;;;;;;8.73;2.93;;;;;;;;;;4991951;28;20477;-74
2023/09/17 16:35:20;;;;;;;271.20;173.27;;;;;;;;;;4983686;28;20455;-67
2023/09/17 16:37:46;;;;;;;8.10;4.47;;;;;;;;;;4972439;28;20893;-67
2023/09/17 16:40:12;;;;;;;7.13;3.27;;;;;;;;;;4972246;28;20483;-68
2023/09/17 16:42:38;;;;;;;8.47;3.33;;;;;;;;;;4972180;28;20455;-67
2023/09/17 16:45:04;;;;;;;7.37;3.77;;;;;;;;;;4972356;28;20436;-68
2023/09/17 16:47:30;;;;;;;12.50;6.05;;;;;;;;;;4970580;28;20895;-75
2023/09/17 16:49:56;;;;;;;10.17;4.30;;;;;;;;;;4972919;28;20231;-75
2023/09/17 16:52:22;;;;;;;6.80;3.50;;;;;;;;;;4972081;28;20889;-75
2023/09/17 16:54:48;;;;;;;9.73;3.93;;;;;;;;;;4972190;28;20423;-75
2023/09/17 16:57:16;;;;;;;5.10;3.03;;;;;;;;;;4972201;28;20418;-75
2023/09/17 16:59:42;;;;;;;7.27;3.20;;;;;;;;;;4971101;28;20423;-75
2023/09/17 17:02:08;;;;;;;9.57;4.30;;;;;;;;;;4976944;28;21015;-75
2023/09/17 17:04:34;;;;;;;6.50;3.43;;;;;;;;;;4990762;28;20756;-76
2023/09/17 17:07:00;;;;;;;7.00;4.10;;;;;;;;;;4978712;28;20415;-76
2023/09/17 17:09:26;;;;;;;8.90;4.10;;;;;;;;;;4972411;28;20486;-76
2023/09/17 17:11:53;;;;;;;15.33;4.87;;;;;;;;;;4976122;28;20434;-75
2023/09/17 17:14:19;;;;;;;7.87;3.70;;;;;;;;;;4994820;28;20423;-75
2023/09/17 17:16:45;;;;;;;8.23;4.30;;;;;;;;;;4997411;28;20865;-76
2023/09/17 17:19:11;;;;;;;7.47;4.47;;;;;;;;;;4995268;28;20888;-74
2023/09/17 17:21:37;;;;;;;5.80;3.70;;;;;;;;;;4995034;28;20815;-75
2023/09/17 17:24:05;;;;;;;7.13;5.07;;;;;;;;;;4992323;28;20428;-76
2023/09/17 17:26:31;;;;;;;10.07;4.87;;;;;;;;;;4995904;28;20476;-76
2023/09/17 17:28:57;;;;;;;15.70;4.97;;;;;;;;;;4995069;28;20915;-76
2023/09/17 17:31:23;;;;;;;10.07;4.23;;;;;;;;;;4994957;28;20411;-76
2023/09/17 17:33:49;;;;;;;10.80;4.10;;;;;;;;;;4994915;28;20441;-77
2023/09/17 17:36:15;;;;;;;15.33;5.63;;;;;;;;;;4994799;28;20427;-74
2023/09/17 17:38:41;;;;;;;8.13;4.30;;;;;;;;;;4982556;28;20459;-74
2023/09/17 17:41:08;;;;;;;11.90;4.70;;;;;;;;;;4975359;28;21037;-74
2023/09/17 17:43:36;;;;;;;9.43;4.33;;;;;;;;;;4975036;28;20499;-76
2023/09/17 17:46:03;;;;;;;10.10;5.07;;;;;;;;;;4974889;28;20432;-74
2023/09/17 17:48:29;;;;;;;11.27;4.90;;;;;;;;;;4975102;28;20419;-75
2023/09/17 17:50:55;;;;;;;7.20;4.30;;;;;;;;;;4975148;28;20424;-74
2023/09/17 17:53:21;;;;;;;8.53;4.90;;;;;;;;;;4989987;28;20441;-74
2023/09/17 17:55:47;;;;;;;6.07;4.30;;;;;;;;;;4994611;28;20434;-74
2023/09/17 17:58:13;;;;;;;7.97;4.10;;;;;;;;;;4994454;28;20473;-74
2023/09/17 18:00:39;;;;;;;13.40;5.30;;;;;;;;;;4988585;28;20471;-76
2023/09/17 18:03:05;;;;;;;11.00;4.40;;;;;;;;;;4983588;28;20418;-76
2023/09/17 18:05:33;;;;;;;16.03;4.80;;;;;;;;;;4984045;28;20442;-76
2023/09/17 18:07:59;;;;;;;20.13;7.00;;;;;;;;;;4987014;28;20422;-76
2023/09/17 18:10:25;;;;;;;14.50;6.20;;;;;;;;;;4993888;28;20415;-75
2023/09/17 18:12:52;;;;;;;10.13;5.70;;;;;;;;;;4997209;28;20511;-75
2023/09/17 18:15:20;;;;;;;20.90;9.13;;;;;;;;;;4987788;28;20452;-75
2023/09/17 18:17:46;;;;;;;19.70;8.90;;;;;;;;;;4985815;28;20447;-75
2023/09/17 18:20:12;;;;;;;22.77;11.37;;;;;;;;;;4982157;28;20766;-75
2023/09/17 18:22:39;;;;;;;18.93;10.53;;;;;;;;;;4985564;28;20418;-75
2023/09/17 18:25:06;;;;;;;24.93;10.17;;;;;;;;;;4984116;28;20815;-75
2023/09/17 18:27:32;;;;;;;11.53;6.93;;;;;;;;;;4984259;28;20477;-76
2023/09/17 18:29:58;;;;;;;18.03;8.60;;;;;;;;;;4983401;28;20514;-76
2023/09/17 18:32:24;;;;;;;17.40;6.83;;;;;;;;;;4979470;28;20507;-75
2023/09/17 18:34:53;;;;;;;17.47;5.43;;;;;;;;;;4981792;28;20445;-73
2023/09/17 18:37:19;;;;;;;15.67;6.33;;;;;;;;;;4985357;28;20451;-73
2023/09/17 18:39:45;;;;;;;13.13;6.10;;;;;;;;;;4979415;28;20946;-74
2023/09/17 18:42:11;;;;;;;9.13;4.73;;;;;;;;;;4989552;28;20466;-75
2023/09/17 18:44:37;;;;;;;9.87;4.23;;;;;;;;;;4985071;28;20954;-74
2023/09/17 18:47:04;;;;;;;9.93;5.13;;;;;;;;;;4984953;28;20989;-74
2023/09/17 18:49:30;;;;;;;12.10;6.20;;;;;;;;;;4983702;28;20922;-74
2023/09/17 18:51:56;;;;;;;7.90;4.03;;;;;;;;;;4982606;28;20507;-73
2023/09/17 18:54:22;;;;;;;8.30;3.83;;;;;;;;;;4983702;28;21005;-73
2023/09/17 18:56:48;;;;;;;11.87;4.80;;;;;;;;;;4977578;28;20428;-74
2023/09/17 18:59:15;;;;;;;7.10;4.43;;;;;;;;;;4987096;28;20478;-74
2023/09/17 19:01:41;;;;;;;8.80;4.03;;;;;;;;;;4988024;28;20456;-74
2023/09/17 19:04:07;;;;;;;10.23;4.20;;;;;;;;;;4987381;28;20512;-74
2023/09/17 19:06:33;;;;;;;8.83;3.43;;;;;;;;;;4986435;28;20698;-72
2023/09/17 19:09:00;;;;;;;6.30;3.60;;;;;;;;;;4985795;28;20415;-75
2023/09/17 19:11:26;;;;;;;7.70;3.80;;;;;;;;;;4981460;28;21018;-73
2023/09/17 19:13:53;;;;;;;6.80;3.27;;;;;;;;;;4990554;28;20459;-75
2023/09/17 19:16:19;;;;;;;6.43;3.63;;;;;;;;;;4991699;28;20459;-75
2023/09/17 19:18:45;;;;;;;8.00;4.00;;;;;;;;;;4989314;28;20443;-75
2023/09/17 19:21:12;;;;;;;7.83;3.80;;;;;;;;;;4984317;28;20534;-75
2023/09/17 19:23:39;;;;;;;7.63;4.20;;;;;;;;;;4985305;28;20411;-74
2023/09/17 19:26:06;;;;;;;5.10;3.37;;;;;;;;;;4984249;28;20478;-74
2023/09/17 19:28:33;;;;;;;12.00;4.20;;;;;;;;;;4984954;28;20428;-74
2023/09/17 19:30:59;;;;;;;10.50;4.27;;;;;;;;;;4985138;28;20431;-75
2023/09/17 19:33:25;;;;;;;10.20;4.13;;;;;;;;;;4990445;28;20435;-74
2023/09/17 19:35:51;;;;;;;7.70;4.27;;;;;;;;;;4985970;28;20505;-75
2023/09/17 19:38:17;;;;;;;7.90;4.20;;;;;;;;;;4972915;28;20475;-75
2023/09/17 19:40:43;;;;;;;6.80;3.50;;;;;;;;;;4972665;28;20459;-75
2023/09/17 19:43:09;;;;;;;8.33;3.60;;;;;;;;;;4974398;28;20431;-74
2023/09/17 19:45:35;;;;;;;11.33;5.30;;;;;;;;;;4973221;28;20431;-74
2023/09/17 19:48:03;;;;;;;6.63;3.70;;;;;;;;;;4973359;28;20499;-74
2023/09/17 19:50:29;;;;;;;9.50;4.10;;;;;;;;;;4985648;28;20801;-75
2023/09/17 19:52:55;;;;;;;10.70;4.70;;;;;;;;;;4992254;28;20440;-75
2023/09/17 19:55:21;;;;;;;16.37;3.97;;;;;;;;;;4992867;28;20863;-75
2023/09/17 19:57:48;;;;;;;8.27;3.90;;;;;;;;;;4989080;28;20427;-75
2023/09/17 20:00:14;;;;;;;7.90;4.13;;;;;;;;;;4975282;28;20507;-75
2023/09/17 20:02:40;;;;;;;8.70;4.07;;;;;;;;;;4977526;28;20419;-75
2023/09/17 20:05:06;;;;;;;10.10;4.50;;;;;;;;;;4987645;28;20448;-75
2023/09/17 20:07:33;;;;;;;6.87;4.23;;;;;;;;;;4985293;28;20497;-74
2023/09/17 20:09:59;;;;;;;6.03;4.37;;;;;;;;;;4993492;28;20411;-74
2023/09/17 20:12:25;;;;;;;8.57;4.07;;;;;;;;;;4976458;28;20423;-75
2023/09/17 20:14:52;;;;;;;8.67;4.37;;;;;;;;;;4989775;28;20529;-75
2023/09/17 20:17:18;;;;;;;11.40;5.37;;;;;;;;;;4986954;28;20424;-75
2023/09/17 20:19:44;;;;;;;8.07;4.90;;;;;;;;;;4973215;28;20512;-75
2023/09/17 20:22:10;;;;;;;6.77;3.83;;;;;;;;;;4984065;28;20478;-75
2023/09/17 20:24:36;;;;;;;6.73;3.70;;;;;;;;;;4974671;28;20444;-75
2023/09/17 20:27:02;;;;;;;10.40;4.97;;;;;;;;;;4988558;28;20494;-75
2023/09/17 20:29:28;;;;;;;16.00;4.70;;;;;;;;;;4973935;28;20428;-75
2023/09/17 20:31:54;;;;;;;11.30;5.17;;;;;;;;;;4982541;28;20488;-75
2023/09/17 20:34:22;;;;;;;12.17;4.50;;;;;;;;;;4978691;28;20431;-75
2023/09/17 20:36:48;;;;;;;6.83;4.30;;;;;;;;;;4984580;28;20518;-75